createdAt,value
2019-05-05T00:02:49.286Z,2.30
2019-05-05T00:05:35.350Z,2.21
2019-05-05T00:08:04.933Z,2.10
2019-05-05T00:11:04.939Z,2.05
2019-05-05T00:13:41.671Z,2.00
2019-05-05T00:16:31.296Z,2.01
2019-05-05T00:18:58.775Z,1.97
2019-05-05T00:21:25.806Z,1.97
2019-05-05T00:23:52.835Z,1.98
2019-05-05T00:26:20.332Z,2.09
2019-05-05T00:28:47.396Z,2.11
2019-05-05T00:31:15.594Z,2.16
2019-05-05T00:33:44.723Z,2.23
2019-05-05T00:36:11.741Z,2.17
2019-05-05T00:38:38.760Z,2.05
2019-05-05T00:41:06.087Z,1.95
2019-05-05T00:43:34.505Z,1.90
2019-05-05T00:46:07.436Z,1.93
2019-05-05T00:48:44.450Z,1.91
2019-05-05T00:51:11.704Z,1.95
2019-05-05T00:53:38.768Z,2.12
2019-05-05T00:56:05.838Z,2.45
2019-05-05T00:58:35.347Z,2.63
2019-05-05T01:01:11.083Z,2.67
2019-05-05T01:03:38.178Z,2.64
2019-05-05T01:06:15.117Z,2.61
2019-05-05T01:08:44.433Z,2.54
2019-05-05T01:11:14.495Z,2.49
2019-05-05T01:13:41.621Z,2.52
2019-05-05T01:16:08.655Z,2.66
2019-05-05T01:18:35.696Z,2.74
2019-05-05T01:21:04.534Z,2.73
2019-05-05T01:23:31.870Z,2.64
2019-05-05T01:25:58.902Z,2.66
2019-05-05T01:28:25.950Z,2.64
2019-05-05T01:30:56.257Z,2.59
2019-05-05T01:33:30.063Z,2.54
2019-05-05T01:35:57.105Z,2.43
2019-05-05T01:38:31.871Z,2.45
2019-05-05T01:41:07.684Z,2.40
2019-05-05T01:43:34.866Z,2.17
2019-05-05T01:46:01.907Z,2.36
2019-05-05T01:48:28.967Z,2.36
2019-05-05T01:50:56.002Z,2.41
2019-05-05T01:53:24.488Z,2.43
2019-05-05T01:55:54.289Z,2.42
2019-05-05T01:58:21.813Z,2.39
2019-05-05T02:00:50.001Z,2.43
2019-05-05T02:03:17.032Z,2.33
2019-05-05T02:05:45.289Z,2.26
2019-05-05T02:08:12.395Z,2.17
2019-05-05T02:10:39.459Z,2.10
2019-05-05T02:13:06.643Z,1.97
2019-05-05T02:15:34.436Z,1.99
2019-05-05T02:18:01.575Z,1.98
2019-05-05T02:20:54.361Z,1.91
2019-05-05T02:23:21.838Z,1.72
2019-05-05T02:25:48.876Z,1.65
2019-05-05T02:28:16.021Z,1.76
2019-05-05T02:31:05.407Z,2.02
2019-05-05T02:33:31.840Z,2.17
2019-05-05T02:35:58.872Z,2.16
2019-05-05T02:38:26.440Z,2.10
2019-05-05T02:40:55.029Z,2.20
2019-05-05T02:43:27.439Z,2.41
2019-05-05T02:46:25.300Z,2.45
2019-05-05T02:48:56.210Z,2.47
2019-05-05T02:51:26.136Z,1.85
2019-05-05T02:53:55.736Z,1.74
2019-05-05T02:56:28.920Z,1.56
2019-05-05T02:59:00.538Z,1.20
2019-05-05T03:01:44.783Z,0.93
2019-05-05T03:04:14.117Z,0.83
2019-05-05T03:06:45.825Z,0.64
2019-05-05T03:09:14.761Z,0.78
2019-05-05T03:11:45.055Z,1.12
2019-05-05T03:14:14.314Z,1.43
2019-05-05T03:16:43.585Z,1.66
2019-05-05T03:19:11.148Z,1.88
2019-05-05T03:21:38.712Z,1.93
2019-05-05T03:24:07.060Z,1.48
2019-05-05T03:26:35.102Z,1.08
2019-05-05T03:29:04.763Z,1.23
2019-05-05T03:31:34.937Z,1.16
2019-05-05T03:34:01.450Z,1.41
2019-05-05T03:36:29.382Z,1.63
2019-05-05T03:38:56.410Z,1.77
2019-05-05T03:41:35.012Z,1.78
2019-05-05T03:44:09.031Z,1.73
2019-05-05T03:46:36.834Z,1.76
2019-05-05T03:49:05.522Z,1.74
2019-05-05T03:51:34.502Z,1.75
2019-05-05T03:54:04.182Z,1.76
2019-05-05T03:56:31.858Z,1.61
2019-05-05T03:59:01.593Z,1.44
2019-05-05T04:01:37.581Z,1.48
2019-05-05T04:04:24.431Z,1.64
2019-05-05T04:06:54.092Z,1.60
2019-05-05T04:09:24.122Z,1.67
2019-05-05T04:11:50.964Z,1.61
2019-05-05T04:14:18.692Z,1.52
2019-05-05T04:16:55.472Z,1.51
2019-05-05T04:19:23.751Z,1.58
2019-05-05T04:21:50.770Z,1.66
2019-05-05T04:24:17.815Z,1.63
2019-05-05T04:26:45.182Z,1.75
2019-05-05T04:29:13.952Z,1.87
2019-05-05T04:31:43.516Z,1.92
2019-05-05T04:34:10.702Z,1.98
2019-05-05T04:36:37.731Z,2.07
2019-05-05T04:39:06.049Z,2.20
2019-05-05T04:41:34.649Z,2.28
2019-05-05T04:44:03.897Z,2.20
2019-05-05T04:46:30.702Z,1.55
2019-05-05T04:49:20.445Z,1.65
2019-05-05T04:51:50.428Z,2.30
2019-05-05T04:54:25.251Z,3.17
2019-05-05T04:56:53.967Z,3.60
2019-05-05T04:59:23.395Z,4.08
2019-05-05T05:01:54.597Z,4.47
2019-05-05T05:04:37.415Z,4.27
2019-05-05T05:07:04.818Z,4.26
2019-05-05T05:09:34.053Z,4.46
2019-05-05T05:12:01.159Z,4.99
2019-05-05T05:14:28.365Z,5.10
2019-05-05T05:16:56.992Z,5.55
2019-05-05T05:19:24.316Z,5.39
2019-05-05T05:21:59.328Z,5.57
2019-05-05T05:24:20.580Z,5.78
2019-05-05T05:26:47.749Z,6.28
2019-05-05T05:29:15.226Z,5.42
2019-05-05T05:31:44.305Z,4.08
2019-05-05T05:34:11.791Z,3.55
2019-05-05T05:36:38.831Z,3.53
2019-05-05T05:39:13.979Z,3.04
2019-05-05T05:41:49.888Z,3.48
2019-05-05T05:44:36.827Z,3.61
2019-05-05T05:47:15.250Z,3.99
2019-05-05T05:49:45.747Z,4.26
2019-05-05T05:52:18.977Z,5.52
2019-05-05T05:54:44.239Z,4.97
2019-05-05T05:57:13.590Z,4.32
2019-05-05T05:59:40.812Z,3.87
2019-05-05T06:02:11.791Z,5.03
2019-05-05T06:04:38.706Z,5.31
2019-05-05T06:07:05.770Z,6.36
2019-05-05T06:09:34.506Z,7.86
2019-05-05T06:12:03.584Z,7.96
2019-05-05T06:14:34.032Z,8.68
2019-05-05T06:17:01.430Z,7.50
2019-05-05T06:19:28.536Z,6.82
2019-05-05T06:21:56.033Z,5.61
2019-05-05T06:24:24.043Z,5.24
2019-05-05T06:26:51.191Z,4.80
2019-05-05T06:29:18.604Z,4.92
2019-05-05T06:31:45.701Z,4.66
2019-05-05T06:34:14.034Z,5.17
2019-05-05T06:36:44.304Z,5.16
2019-05-05T06:39:11.308Z,4.96
2019-05-05T06:41:57.940Z,4.99
2019-05-05T06:44:33.790Z,5.13
2019-05-05T06:47:04.743Z,5.49
2019-05-05T06:49:34.522Z,5.43
2019-05-05T06:52:04.041Z,6.76
2019-05-05T06:54:34.640Z,6.71
2019-05-05T06:57:01.475Z,8.55
2019-05-05T06:59:28.513Z,9.04
2019-05-05T07:01:55.567Z,8.76
2019-05-05T07:04:24.587Z,9.50
2019-05-05T07:06:56.719Z,7.44
2019-05-05T07:09:20.595Z,7.78
2019-05-05T07:11:47.700Z,8.01
2019-05-05T07:14:14.741Z,9.97
2019-05-05T07:16:43.712Z,12.09
2019-05-05T07:19:10.759Z,13.79
2019-05-05T07:21:37.906Z,11.14
2019-05-05T07:24:04.981Z,11.09
2019-05-05T07:26:34.000Z,10.29
2019-05-05T07:29:01.048Z,9.06
2019-05-05T07:31:28.117Z,10.61
2019-05-05T07:33:56.389Z,9.65
2019-05-05T07:36:36.149Z,9.18
2019-05-05T07:39:05.636Z,10.80
2019-05-05T07:41:34.060Z,10.19
2019-05-05T07:44:04.650Z,9.04
2019-05-05T07:46:31.768Z,9.74
2019-05-05T07:48:58.841Z,11.03
2019-05-05T07:51:25.915Z,12.94
2019-05-05T07:53:54.653Z,16.53
2019-05-05T07:56:23.756Z,14.32
2019-05-05T07:58:50.972Z,16.30
2019-05-05T08:01:18.216Z,18.18
2019-05-05T08:03:45.266Z,19.04
2019-05-05T08:06:14.325Z,20.25
2019-05-05T08:08:41.490Z,19.86
2019-05-05T08:11:08.556Z,13.98
2019-05-05T08:13:35.623Z,12.28
2019-05-05T08:16:08.037Z,9.73
2019-05-05T08:18:51.269Z,9.03
2019-05-05T08:21:18.375Z,10.35
2019-05-05T08:24:09.048Z,10.64
2019-05-05T08:27:04.685Z,10.24
2019-05-05T08:29:38.039Z,11.23
2019-05-05T08:32:35.654Z,10.10
2019-05-05T08:35:04.332Z,10.06
2019-05-05T08:37:31.420Z,11.12
2019-05-05T08:39:58.546Z,10.89
2019-05-05T08:42:25.669Z,10.90
2019-05-05T08:44:53.870Z,12.11
2019-05-05T08:47:21.094Z,12.41
2019-05-05T08:49:48.135Z,13.65
2019-05-05T08:52:15.253Z,14.84
2019-05-05T08:54:44.749Z,11.20
2019-05-05T08:57:12.100Z,10.40
2019-05-05T08:59:39.331Z,10.06
2019-05-05T09:02:08.248Z,9.22
2019-05-05T09:04:35.647Z,9.54
2019-05-05T09:07:05.222Z,10.61
2019-05-05T09:09:33.523Z,10.51
2019-05-05T09:12:01.163Z,9.44
2019-05-05T09:14:28.317Z,9.22
2019-05-05T09:16:56.777Z,9.44
2019-05-05T09:19:24.166Z,10.01
2019-05-05T09:21:51.242Z,10.99
2019-05-05T09:24:28.214Z,11.16
2019-05-05T09:27:05.417Z,11.51
2019-05-05T09:29:43.802Z,11.30
2019-05-05T09:32:13.873Z,11.47
2019-05-05T09:34:43.625Z,10.75
2019-05-05T09:37:14.190Z,10.40
2019-05-05T09:39:43.466Z,10.54
2019-05-05T09:42:10.615Z,11.37
2019-05-05T09:44:37.896Z,12.99
2019-05-05T09:47:05.233Z,14.77
2019-05-05T09:49:33.851Z,13.44
2019-05-05T09:52:04.974Z,13.19
2019-05-05T09:54:34.423Z,11.86
2019-05-05T09:57:01.680Z,10.19
2019-05-05T09:59:28.931Z,10.31
2019-05-05T10:01:56.167Z,9.95
2019-05-05T10:04:26.161Z,11.02
2019-05-05T10:06:53.358Z,10.61
2019-05-05T10:09:20.462Z,11.28
2019-05-05T10:11:49.173Z,12.36
2019-05-05T10:14:16.282Z,14.72
2019-05-05T10:16:43.455Z,16.70
2019-05-05T10:19:10.784Z,22.12
2019-05-05T10:21:44.609Z,24.37
2019-05-05T10:24:30.848Z,18.47
2019-05-05T10:26:58.740Z,14.28
2019-05-05T10:29:25.953Z,12.04
2019-05-05T10:31:53.949Z,11.39
2019-05-05T10:34:21.091Z,10.97
2019-05-05T10:36:48.178Z,10.77
2019-05-05T10:39:24.163Z,10.81
2019-05-05T10:41:53.413Z,10.60
2019-05-05T10:44:20.569Z,10.55
2019-05-05T10:46:47.646Z,10.25
2019-05-05T10:49:15.922Z,11.09
2019-05-05T10:51:43.956Z,10.99
2019-05-05T10:54:11.406Z,12.42
2019-05-05T10:56:38.469Z,14.89
2019-05-05T10:59:07.495Z,16.38
2019-05-05T11:01:40.725Z,17.65
2019-05-05T11:04:07.774Z,18.91
2019-05-05T11:06:35.081Z,18.09
2019-05-05T11:09:06.476Z,16.54
2019-05-05T11:11:34.377Z,12.99
2019-05-05T11:14:03.894Z,14.42
2019-05-05T11:16:32.190Z,17.73
2019-05-05T11:18:59.567Z,19.03
2019-05-05T11:21:26.743Z,17.97
2019-05-05T11:23:54.025Z,16.92
2019-05-05T11:26:21.455Z,13.15
2019-05-05T11:28:48.549Z,12.21
2019-05-05T11:31:16.981Z,12.69
2019-05-05T11:34:06.517Z,12.24
2019-05-05T11:36:41.409Z,11.17
2019-05-05T11:39:08.568Z,10.33
2019-05-05T11:41:36.906Z,10.99
2019-05-05T11:44:05.873Z,11.60
2019-05-05T11:46:33.949Z,11.54
2019-05-05T11:49:01.295Z,12.04
2019-05-05T11:51:28.435Z,12.76
2019-05-05T11:53:58.955Z,14.19
2019-05-05T11:56:26.073Z,16.73
2019-05-05T11:58:55.307Z,17.93
2019-05-05T12:01:24.338Z,19.04
2019-05-05T12:03:54.446Z,17.21
2019-05-05T12:06:21.504Z,17.66
2019-05-05T12:08:50.178Z,17.33
2019-05-05T12:11:17.591Z,16.93
2019-05-05T12:13:44.780Z,15.21
2019-05-05T12:16:15.152Z,14.24
2019-05-05T12:18:44.213Z,15.46
2019-05-05T12:21:11.455Z,13.98
2019-05-05T12:23:38.803Z,12.58
2019-05-05T12:26:26.079Z,12.94
2019-05-05T12:29:04.129Z,12.89
2019-05-05T12:31:34.141Z,11.42
2019-05-05T12:34:03.912Z,11.42
2019-05-05T12:36:34.171Z,12.03
2019-05-05T12:39:06.341Z,13.08
2019-05-05T12:41:34.981Z,14.63
2019-05-05T12:44:03.376Z,15.01
2019-05-05T12:46:53.897Z,16.35
2019-05-05T12:49:24.806Z,16.23
2019-05-05T12:51:50.162Z,15.50
2019-05-05T12:54:17.310Z,13.60
2019-05-05T12:56:44.716Z,16.54
2019-05-05T12:59:18.438Z,17.16
2019-05-05T13:01:45.524Z,18.66
2019-05-05T13:04:14.140Z,21.21
2019-05-05T13:06:41.517Z,19.28
2019-05-05T13:09:09.855Z,16.11
2019-05-05T13:11:38.980Z,15.55
2019-05-05T13:14:06.041Z,15.16
2019-05-05T13:16:33.322Z,15.24
2019-05-05T13:19:04.367Z,15.47
2019-05-05T13:22:09.675Z,13.80
2019-05-05T13:25:08.842Z,13.01
2019-05-05T13:27:38.386Z,13.62
2019-05-05T13:30:08.091Z,14.13
2019-05-05T13:32:35.460Z,13.71
2019-05-05T13:35:04.050Z,12.18
2019-05-05T13:37:33.802Z,12.27
2019-05-05T13:40:01.218Z,12.74
2019-05-05T13:42:28.621Z,12.01
2019-05-05T13:45:08.038Z,12.42
2019-05-05T13:47:38.408Z,12.63
2019-05-05T13:50:14.154Z,11.87
2019-05-05T13:52:41.759Z,11.36
2019-05-05T13:55:13.874Z,10.59
2019-05-05T13:57:44.464Z,11.01
2019-05-05T14:00:15.444Z,11.97
2019-05-05T14:02:43.920Z,12.26
2019-05-05T14:05:13.402Z,12.96
2019-05-05T14:07:40.819Z,13.06
2019-05-05T14:10:08.948Z,13.57
2019-05-05T14:12:36.346Z,13.28
2019-05-05T14:15:04.551Z,15.14
2019-05-05T14:17:32.864Z,15.84
2019-05-05T14:20:09.319Z,16.34
2019-05-05T14:22:31.342Z,17.41
2019-05-05T14:25:05.637Z,18.74
2019-05-05T14:27:33.216Z,18.32
2019-05-05T14:30:18.951Z,17.40
2019-05-05T14:32:46.486Z,16.87
2019-05-05T14:35:29.215Z,16.08
2019-05-05T14:37:59.815Z,14.97
2019-05-05T14:40:27.012Z,15.98
2019-05-05T14:42:55.139Z,16.23
2019-05-05T14:45:23.540Z,17.22
2019-05-05T14:47:50.905Z,17.47
2019-05-05T14:50:20.187Z,17.22
2019-05-05T14:52:47.478Z,16.50
2019-05-05T14:55:14.672Z,15.73
2019-05-05T14:57:43.962Z,15.29
2019-05-05T15:00:16.994Z,15.41
2019-05-05T15:02:49.196Z,15.79
2019-05-05T15:05:54.803Z,14.47
2019-05-05T15:08:35.550Z,14.86
2019-05-05T15:11:06.609Z,14.23
2019-05-05T15:13:34.852Z,12.10
2019-05-05T15:16:04.001Z,12.61
2019-05-05T15:18:31.776Z,13.02
2019-05-05T15:20:58.922Z,13.63
2019-05-05T15:23:27.921Z,13.61
2019-05-05T15:25:55.153Z,13.75
2019-05-05T15:28:24.345Z,13.74
2019-05-05T15:30:54.933Z,15.12
2019-05-05T15:33:26.251Z,15.75
2019-05-05T15:35:58.843Z,16.34
2019-05-05T15:38:28.450Z,16.38
2019-05-05T15:40:56.739Z,15.78
2019-05-05T15:43:24.502Z,14.85
2019-05-05T15:45:54.789Z,14.69
2019-05-05T15:48:22.251Z,14.68
2019-05-05T15:50:50.655Z,14.49
2019-05-05T15:53:23.529Z,15.74
2019-05-05T15:55:54.028Z,15.61
2019-05-05T15:58:25.282Z,16.75
2019-05-05T16:00:56.998Z,17.28
2019-05-05T16:03:26.514Z,15.81
2019-05-05T16:05:56.015Z,15.64
2019-05-05T16:08:25.213Z,15.66
2019-05-05T16:10:54.748Z,15.20
2019-05-05T16:13:22.172Z,14.68
2019-05-05T16:16:08.966Z,13.77
2019-05-05T16:19:05.618Z,13.70
2019-05-05T16:21:39.629Z,13.27
2019-05-05T16:24:14.003Z,12.89
2019-05-05T16:26:41.239Z,11.86
2019-05-05T16:29:10.666Z,11.99
2019-05-05T16:31:39.841Z,11.87
2019-05-05T16:34:09.084Z,11.98
2019-05-05T16:36:36.646Z,12.20
2019-05-05T16:39:10.110Z,12.26
2019-05-05T16:41:40.893Z,12.24
2019-05-05T16:44:15.850Z,12.61
2019-05-05T16:46:43.501Z,12.15
2019-05-05T16:49:10.724Z,11.79
2019-05-05T16:51:43.922Z,12.41
2019-05-05T16:54:17.427Z,12.82
2019-05-05T16:56:48.424Z,12.72
2019-05-05T16:59:16.675Z,12.53
2019-05-05T17:01:46.566Z,13.34
2019-05-05T17:04:14.245Z,12.97
2019-05-05T17:06:41.396Z,12.31
2019-05-05T17:09:08.497Z,11.85
2019-05-05T17:11:37.750Z,11.41
2019-05-05T17:14:33.839Z,11.00
2019-05-05T17:17:26.778Z,10.94
2019-05-05T17:20:08.665Z,10.60
2019-05-05T17:22:44.601Z,10.36
2019-05-05T17:25:13.940Z,10.50
2019-05-05T17:27:54.414Z,10.73
2019-05-05T17:30:24.501Z,10.80
2019-05-05T17:32:51.506Z,10.86
2019-05-05T17:35:18.744Z,10.84
2019-05-05T17:37:48.676Z,10.78
2019-05-05T17:40:33.380Z,10.73
2019-05-05T17:43:24.976Z,10.68
2019-05-05T17:45:57.187Z,10.71
2019-05-05T17:48:31.597Z,10.61
2019-05-05T17:51:23.472Z,10.69
2019-05-05T17:54:01.345Z,10.68
2019-05-05T17:56:31.176Z,10.38
2019-05-05T17:58:58.530Z,10.22
2019-05-05T18:01:25.691Z,10.25
2019-05-05T18:03:54.481Z,10.12
2019-05-05T18:06:41.323Z,9.81
2019-05-05T18:09:14.263Z,9.49
2019-05-05T18:12:10.063Z,9.30
2019-05-05T18:14:40.534Z,9.30
2019-05-05T18:17:08.829Z,9.22
2019-05-05T18:19:36.117Z,9.19
2019-05-05T18:22:05.459Z,9.07
2019-05-05T18:24:33.711Z,9.05
2019-05-05T18:27:04.523Z,9.00
2019-05-05T18:29:33.887Z,8.94
2019-05-05T18:32:04.203Z,8.92
2019-05-05T18:34:30.996Z,8.96
2019-05-05T18:37:00.599Z,9.03
2019-05-05T18:39:29.828Z,9.04
2019-05-05T18:42:11.245Z,8.95
2019-05-05T18:44:45.377Z,8.84
2019-05-05T18:47:20.331Z,8.77
2019-05-05T18:49:47.596Z,8.84
2019-05-05T18:52:17.120Z,8.77
2019-05-05T18:57:11.565Z,8.68
2019-05-05T18:59:40.361Z,8.53
2019-05-05T19:02:26.219Z,8.43
2019-05-05T19:05:27.008Z,8.50
2019-05-05T19:07:57.466Z,8.62
2019-05-05T19:10:24.896Z,8.61
2019-05-05T19:12:54.095Z,8.62
2019-05-05T19:15:21.478Z,8.56
2019-05-05T19:17:48.908Z,8.45
2019-05-05T19:20:35.220Z,8.37
2019-05-05T19:23:05.746Z,8.39
2019-05-05T19:25:32.286Z,8.58
2019-05-05T19:27:59.972Z,8.79
2019-05-05T19:30:27.163Z,9.20
2019-05-05T19:32:54.334Z,9.72
2019-05-05T19:35:43.661Z,10.13
2019-05-05T19:38:02.228Z,10.45
2019-05-05T19:40:31.042Z,10.71
2019-05-05T19:42:59.983Z,10.62
2019-05-05T19:45:27.189Z,10.69
2019-05-05T19:47:54.501Z,10.83
2019-05-05T19:50:34.076Z,10.26
2019-05-05T19:53:04.406Z,9.44
2019-05-05T19:55:33.813Z,8.47
2019-05-05T19:58:03.452Z,8.12
2019-05-05T20:00:30.304Z,7.92
2019-05-05T20:03:04.599Z,7.82
2019-05-05T20:05:28.979Z,7.89
2019-05-05T20:07:59.023Z,7.97
2019-05-05T20:10:26.228Z,7.82
2019-05-05T20:12:55.280Z,7.72
2019-05-05T20:15:37.335Z,7.78
2019-05-05T20:18:05.922Z,7.61
2019-05-05T20:20:37.156Z,7.55
2019-05-05T20:23:06.049Z,7.47
2019-05-05T20:25:35.083Z,7.47
2019-05-05T20:28:06.426Z,7.46
2019-05-05T20:30:34.322Z,7.63
2019-05-05T20:33:08.580Z,7.72
2019-05-05T20:35:42.522Z,7.75
2019-05-05T20:38:15.136Z,7.95
2019-05-05T20:41:05.563Z,7.73
2019-05-05T20:43:34.149Z,7.68
2019-05-05T20:46:01.727Z,7.78
2019-05-05T20:48:28.908Z,8.05
2019-05-05T20:50:56.141Z,8.23
2019-05-05T20:53:24.625Z,8.22
2019-05-05T20:55:54.449Z,8.14
2019-05-05T20:58:23.840Z,8.10
2019-05-05T21:00:50.768Z,7.89
2019-05-05T21:03:18.103Z,7.60
2019-05-05T21:05:45.201Z,7.44
2019-05-05T21:08:14.137Z,7.43
2019-05-05T21:10:41.409Z,7.35
2019-05-05T21:13:08.683Z,7.35
2019-05-05T21:15:35.896Z,7.08
2019-05-05T21:18:04.892Z,7.19
2019-05-05T21:20:32.099Z,7.41
2019-05-05T21:23:14.418Z,7.54
2019-05-05T21:25:44.811Z,7.48
2019-05-05T21:28:14.736Z,7.77
2019-05-05T21:30:44.298Z,7.90
2019-05-05T21:33:13.239Z,8.01
2019-05-05T21:35:40.414Z,8.09
2019-05-05T21:38:07.487Z,8.16
2019-05-05T21:40:34.853Z,7.99
2019-05-05T21:43:02.047Z,7.64
2019-05-05T21:45:29.141Z,7.76
2019-05-05T21:47:56.385Z,7.16
2019-05-05T21:50:29.737Z,6.80
2019-05-05T21:53:04.599Z,6.70
2019-05-05T21:55:40.278Z,6.80
2019-05-05T21:58:13.688Z,6.67
2019-05-05T22:00:59.127Z,6.43
2019-05-05T22:03:35.020Z,6.15
2019-05-05T22:06:14.418Z,6.07
2019-05-05T22:08:43.361Z,6.17
2019-05-05T22:11:14.823Z,6.33
2019-05-05T22:13:44.246Z,6.77
2019-05-05T22:16:13.724Z,6.71
2019-05-05T22:18:40.998Z,6.75
2019-05-05T22:21:35.734Z,6.92
2019-05-05T22:24:17.489Z,7.19
2019-05-05T22:26:45.710Z,6.95
2019-05-05T22:29:14.057Z,5.97
2019-05-05T22:31:42.022Z,5.61
2019-05-05T22:34:09.102Z,5.46
2019-05-05T22:36:36.589Z,5.34
2019-05-05T22:39:05.954Z,5.30
2019-05-05T22:41:35.219Z,5.35
2019-05-05T22:44:04.340Z,5.35
2019-05-05T22:46:34.736Z,5.41
2019-05-05T22:49:03.921Z,5.43
2019-05-05T22:51:33.807Z,5.52
2019-05-05T22:54:03.989Z,5.76
2019-05-05T22:56:33.950Z,5.59
2019-05-05T22:59:01.098Z,5.53
2019-05-05T23:01:28.257Z,5.46
2019-05-05T23:04:17.487Z,5.49
2019-05-05T23:06:46.219Z,6.01
2019-05-05T23:09:14.748Z,6.46
2019-05-05T23:11:44.000Z,6.78
2019-05-05T23:14:37.045Z,7.11
2019-05-05T23:17:26.610Z,7.05
2019-05-05T23:20:00.207Z,7.43
2019-05-05T23:22:36.323Z,7.40
2019-05-05T23:25:10.599Z,7.59
2019-05-05T23:27:47.095Z,7.18
2019-05-05T23:30:15.947Z,7.19
2019-05-05T23:32:43.947Z,7.08
2019-05-05T23:35:11.421Z,7.54
2019-05-05T23:37:38.470Z,7.99
2019-05-05T23:40:09.486Z,8.44
2019-05-05T23:42:36.570Z,8.74
2019-05-05T23:45:05.449Z,8.90
2019-05-05T23:47:34.555Z,9.07
2019-05-05T23:50:01.595Z,9.04
2019-05-05T23:52:28.654Z,8.20
2019-05-05T23:54:55.703Z,7.33
2019-05-05T23:57:24.555Z,7.29
2019-05-05T23:59:53.697Z,7.74
